createdAt,value
2019-02-09T00:02:34.498Z,0.40
2019-02-09T00:05:15.296Z,0.40
2019-02-09T00:07:56.061Z,0.50
2019-02-09T00:13:23.167Z,0.40
2019-02-09T00:16:03.966Z,0.50
2019-02-09T00:18:44.575Z,0.50
2019-02-09T00:21:25.572Z,0.50
2019-02-09T00:24:06.094Z,0.40
2019-02-09T00:26:47.185Z,0.30
2019-02-09T00:29:27.932Z,0.20
2019-02-09T00:32:09.889Z,0.30
2019-02-09T00:34:50.381Z,0.40
2019-02-09T00:37:31.196Z,0.50
2019-02-09T00:40:12.009Z,0.40
2019-02-09T00:42:52.833Z,0.40
2019-02-09T00:45:33.735Z,0.40
2019-02-09T00:48:14.544Z,0.40
2019-02-09T00:50:55.412Z,0.40
2019-02-09T00:53:36.210Z,0.40
2019-02-09T00:56:17.176Z,0.50
2019-02-09T00:58:58.327Z,0.40
2019-02-09T01:01:39.088Z,0.40
2019-02-09T01:04:19.975Z,0.30
2019-02-09T01:07:00.794Z,0.40
2019-02-09T01:09:41.937Z,0.40
2019-02-09T01:12:22.976Z,0.40
2019-02-09T01:15:03.858Z,0.40
2019-02-09T01:17:44.646Z,0.40
2019-02-09T01:20:25.397Z,0.40
2019-02-09T01:23:06.024Z,0.30
2019-02-09T01:25:46.682Z,0.40
2019-02-09T01:28:27.442Z,0.50
2019-02-09T01:31:08.326Z,0.50
2019-02-09T01:33:49.206Z,0.50
2019-02-09T01:36:29.869Z,0.60
2019-02-09T01:39:10.585Z,0.60
2019-02-09T01:41:51.744Z,0.50
2019-02-09T01:44:32.951Z,0.50
2019-02-09T01:47:13.825Z,0.50
2019-02-09T01:49:54.900Z,0.60
2019-02-09T01:52:36.123Z,0.70
2019-02-09T01:55:16.692Z,0.70
2019-02-09T01:57:57.474Z,0.80
2019-02-09T02:00:38.440Z,0.80
2019-02-09T02:03:19.219Z,0.70
2019-02-09T02:06:00.116Z,0.50
2019-02-09T02:08:41.132Z,0.50
2019-02-09T02:11:21.816Z,0.50
2019-02-09T02:14:02.720Z,0.40
2019-02-09T02:16:45.704Z,0.50
2019-02-09T02:19:26.054Z,0.40
2019-02-09T02:22:07.037Z,0.40
2019-02-09T02:24:47.717Z,0.40
2019-02-09T02:27:28.386Z,0.40
2019-02-09T02:30:09.399Z,0.40
2019-02-09T02:32:51.669Z,0.50
2019-02-09T02:35:33.004Z,0.40
2019-02-09T02:38:15.163Z,0.30
2019-02-09T02:40:55.634Z,0.20
2019-02-09T02:43:36.901Z,0.20
2019-02-09T02:46:17.677Z,0.20
2019-02-09T02:48:58.578Z,0.30
2019-02-09T02:51:39.718Z,0.20
2019-02-09T02:54:20.825Z,0.20
2019-02-09T02:57:01.784Z,0.20
2019-02-09T02:59:42.593Z,0.10
2019-02-09T03:02:23.469Z,0.10
2019-02-09T03:05:04.318Z,0.10
2019-02-09T03:07:45.237Z,0.10
2019-02-09T03:10:26.181Z,0.00
2019-02-09T03:13:07.000Z,0.10
2019-02-09T03:15:48.026Z,0.10
2019-02-09T03:18:29.117Z,0.20
2019-02-09T03:21:09.765Z,0.20
2019-02-09T03:23:50.785Z,0.20
2019-02-09T03:26:31.389Z,0.20
2019-02-09T03:29:12.425Z,0.20
2019-02-09T03:31:53.228Z,0.30
2019-02-09T03:34:34.171Z,0.20
2019-02-09T03:37:15.052Z,0.20
2019-02-09T03:39:55.940Z,0.20
2019-02-09T03:42:36.462Z,0.30
2019-02-09T03:45:17.820Z,0.40
2019-02-09T03:47:58.691Z,0.40
2019-02-09T03:50:39.234Z,0.50
2019-02-09T03:53:20.120Z,0.60
2019-02-09T03:56:00.859Z,0.90
2019-02-09T03:58:41.665Z,1.40
2019-02-09T04:01:22.473Z,1.70
2019-02-09T04:04:03.434Z,2.00
2019-02-09T04:06:44.115Z,1.80
2019-02-09T04:12:04.220Z,1.60
2019-02-09T04:14:44.628Z,1.50
2019-02-09T04:17:25.085Z,1.50
2019-02-09T04:20:05.817Z,1.50
2019-02-09T04:22:46.243Z,1.40
2019-02-09T04:25:27.052Z,1.40
2019-02-09T04:28:07.689Z,1.40
2019-02-09T04:30:48.459Z,1.50
2019-02-09T04:33:29.045Z,1.50
2019-02-09T04:36:09.681Z,1.40
2019-02-09T04:38:51.049Z,1.40
2019-02-09T04:41:31.850Z,1.30
2019-02-09T04:44:12.580Z,1.30
2019-02-09T04:46:53.914Z,1.20
2019-02-09T04:49:34.493Z,1.10
2019-02-09T04:52:15.024Z,1.10
2019-02-09T04:54:55.777Z,1.00
2019-02-09T04:57:37.000Z,1.00
2019-02-09T05:00:18.023Z,1.10
2019-02-09T05:02:58.408Z,1.10
2019-02-09T05:05:39.232Z,1.10
2019-02-09T05:08:19.748Z,1.30
2019-02-09T05:11:00.871Z,1.30
2019-02-09T05:13:41.242Z,1.30
2019-02-09T05:16:22.393Z,1.30
2019-02-09T05:19:02.973Z,1.30
2019-02-09T05:21:43.574Z,1.20
2019-02-09T05:24:24.136Z,1.20
2019-02-09T05:27:05.316Z,1.30
2019-02-09T05:29:45.657Z,1.20
2019-02-09T05:32:26.516Z,1.30
2019-02-09T05:35:07.148Z,1.30
2019-02-09T05:37:48.007Z,1.50
2019-02-09T05:40:28.615Z,1.50
2019-02-09T05:43:09.521Z,1.50
2019-02-09T05:45:50.576Z,1.60
2019-02-09T05:48:34.409Z,1.70
2019-02-09T05:51:14.937Z,1.90
2019-02-09T05:53:55.715Z,2.00
2019-02-09T05:56:36.490Z,2.00
2019-02-09T05:59:17.373Z,2.00
2019-02-09T06:01:58.068Z,2.10
2019-02-09T06:04:38.845Z,2.10
2019-02-09T06:07:19.631Z,2.20
2019-02-09T06:10:00.874Z,2.20
2019-02-09T06:12:42.037Z,2.30
2019-02-09T06:15:23.300Z,2.30
2019-02-09T06:18:04.202Z,2.30
2019-02-09T06:20:44.929Z,2.20
2019-02-09T06:23:25.776Z,2.20
2019-02-09T06:26:06.625Z,2.30
2019-02-09T06:28:47.380Z,2.40
2019-02-09T06:31:28.284Z,2.50
2019-02-09T06:34:09.066Z,2.40
2019-02-09T06:36:49.937Z,2.30
2019-02-09T06:39:30.850Z,2.30
2019-02-09T06:42:11.845Z,2.30
2019-02-09T06:44:52.619Z,2.30
2019-02-09T06:47:33.546Z,2.30
2019-02-09T06:50:02.515Z,2.30
2019-02-09T06:52:50.655Z,2.30
2019-02-09T06:55:38.818Z,2.30
2019-02-09T06:58:19.869Z,2.40
2019-02-09T07:01:00.748Z,2.50
2019-02-09T07:03:41.137Z,2.50
2019-02-09T07:06:22.141Z,2.60
2019-02-09T07:09:04.033Z,2.50
2019-02-09T07:11:33.022Z,2.50
2019-02-09T07:14:21.165Z,2.50
2019-02-09T07:17:09.401Z,2.50
2019-02-09T07:19:49.956Z,2.50
2019-02-09T07:22:31.013Z,2.60
2019-02-09T07:25:12.010Z,2.60
2019-02-09T07:27:41.056Z,2.70
2019-02-09T07:30:29.240Z,2.70
2019-02-09T07:33:17.392Z,2.70
2019-02-09T07:35:58.061Z,2.80
2019-02-09T07:38:38.574Z,2.80
2019-02-09T07:41:19.435Z,2.80
2019-02-09T07:44:00.260Z,2.80
2019-02-09T07:46:41.054Z,2.80
2019-02-09T07:49:22.093Z,2.90
2019-02-09T07:57:38.876Z,3.20
2019-02-09T08:00:19.541Z,3.10
2019-02-09T08:03:00.219Z,3.10
2019-02-09T08:05:41.477Z,3.20
2019-02-09T08:08:22.509Z,3.20
2019-02-09T08:11:09.044Z,3.20
2019-02-09T08:13:45.817Z,3.20
2019-02-09T08:16:26.416Z,3.30
2019-02-09T08:19:07.286Z,3.30
2019-02-09T08:21:48.040Z,3.30
2019-02-09T08:24:28.779Z,3.40
2019-02-09T08:27:09.452Z,3.50
2019-02-09T08:29:49.986Z,3.50
2019-02-09T08:32:31.069Z,3.50
2019-02-09T08:35:11.809Z,3.60
2019-02-09T08:37:52.625Z,3.60
2019-02-09T08:40:33.617Z,3.70
2019-02-09T08:43:14.903Z,3.70
2019-02-09T08:45:56.137Z,3.80
2019-02-09T08:48:37.224Z,4.00
2019-02-09T08:51:18.319Z,4.20
2019-02-09T08:53:59.212Z,4.50
2019-02-09T08:56:40.132Z,4.90
2019-02-09T08:59:09.132Z,5.20
2019-02-09T09:01:57.320Z,5.50
2019-02-09T09:04:38.369Z,5.80
2019-02-09T09:07:19.000Z,6.20
2019-02-09T09:09:48.061Z,6.40
2019-02-09T09:12:28.915Z,6.60
2019-02-09T09:15:10.019Z,6.60
2019-02-09T09:17:51.126Z,6.70
2019-02-09T09:20:31.961Z,6.80
2019-02-09T09:23:12.864Z,6.90
2019-02-09T09:25:53.736Z,7.00
2019-02-09T09:28:34.316Z,7.10
2019-02-09T09:31:14.746Z,7.00
2019-02-09T09:33:55.706Z,7.10
2019-02-09T09:36:37.000Z,7.10
2019-02-09T09:39:17.561Z,7.10
2019-02-09T09:41:58.281Z,7.10
2019-02-09T09:44:39.076Z,7.20
2019-02-09T09:47:19.859Z,7.20
2019-02-09T09:50:00.292Z,7.20
2019-02-09T09:52:41.200Z,7.20
2019-02-09T09:55:22.016Z,7.40
2019-02-09T09:58:02.860Z,7.50
2019-02-09T10:00:43.758Z,7.50
2019-02-09T10:03:24.392Z,7.60
2019-02-09T10:06:05.240Z,7.50
2019-02-09T10:11:24.440Z,7.50
2019-02-09T10:14:08.877Z,7.50
2019-02-09T10:16:48.340Z,7.70
2019-02-09T10:19:17.316Z,7.70
2019-02-09T10:21:46.350Z,7.80
2019-02-09T10:24:34.520Z,7.80
2019-02-09T10:27:22.602Z,7.70
2019-02-09T10:30:03.694Z,7.70
2019-02-09T10:32:44.747Z,7.70
2019-02-09T10:35:25.412Z,7.70
2019-02-09T10:38:06.300Z,7.70
2019-02-09T10:40:46.964Z,7.80
2019-02-09T10:43:28.074Z,7.80
2019-02-09T10:46:08.901Z,7.80
2019-02-09T10:48:50.220Z,7.90
2019-02-09T10:51:31.563Z,7.90
2019-02-09T10:54:12.698Z,8.00
2019-02-09T10:56:53.230Z,8.00
2019-02-09T10:59:34.149Z,8.00
2019-02-09T11:02:03.276Z,8.10
2019-02-09T11:04:51.416Z,8.10
2019-02-09T11:07:39.560Z,8.10
2019-02-09T11:10:20.721Z,8.20
2019-02-09T11:13:01.607Z,8.20
2019-02-09T11:15:42.320Z,8.20
2019-02-09T11:18:23.092Z,8.20
2019-02-09T11:21:03.910Z,8.20
2019-02-09T11:23:44.284Z,8.30
2019-02-09T11:26:24.917Z,8.40
2019-02-09T11:29:05.642Z,8.40
2019-02-09T11:31:46.273Z,8.30
2019-02-09T11:34:15.308Z,8.30
2019-02-09T11:40:03.573Z,8.40
2019-02-09T11:42:44.432Z,8.40
2019-02-09T11:45:25.408Z,8.40
2019-02-09T11:48:06.997Z,8.40
2019-02-09T11:50:47.880Z,8.40
2019-02-09T11:53:28.792Z,8.50
2019-02-09T11:55:57.828Z,8.60
2019-02-09T11:58:46.021Z,8.70
2019-02-09T12:01:34.168Z,8.80
2019-02-09T12:04:14.773Z,8.90
2019-02-09T12:06:55.390Z,8.90
2019-02-09T12:09:36.584Z,9.00
2019-02-09T12:12:17.097Z,9.00
2019-02-09T12:14:57.673Z,9.00
2019-02-09T12:17:38.191Z,9.00
2019-02-09T12:20:09.559Z,9.10
2019-02-09T12:22:57.709Z,9.10
2019-02-09T12:25:38.863Z,9.20
2019-02-09T12:28:19.559Z,9.40
2019-02-09T12:31:00.129Z,9.60
2019-02-09T12:33:40.884Z,9.70
2019-02-09T12:36:22.225Z,9.80
2019-02-09T12:39:03.810Z,9.90
2019-02-09T12:41:44.160Z,10.00
2019-02-09T12:44:25.364Z,10.10
2019-02-09T12:47:06.131Z,10.20
2019-02-09T12:49:46.533Z,10.20
2019-02-09T12:52:15.564Z,10.10
2019-02-09T12:55:03.755Z,10.10
2019-02-09T12:57:44.811Z,10.10
2019-02-09T13:00:25.264Z,10.20
2019-02-09T13:03:06.177Z,10.20
2019-02-09T13:05:47.536Z,10.40
2019-02-09T13:08:28.692Z,10.50
2019-02-09T13:11:09.552Z,10.60
2019-02-09T13:13:50.258Z,10.60
2019-02-09T13:16:31.193Z,10.50
2019-02-09T13:19:11.992Z,10.50
2019-02-09T13:21:52.793Z,10.60
2019-02-09T13:24:33.660Z,10.80
2019-02-09T13:27:14.466Z,10.90
2019-02-09T13:29:55.186Z,11.10
2019-02-09T13:32:35.967Z,11.10
2019-02-09T13:35:17.880Z,11.10
2019-02-09T13:37:58.645Z,11.30
2019-02-09T13:40:39.465Z,11.40
2019-02-09T13:43:20.128Z,11.50
2019-02-09T13:45:51.423Z,11.30
2019-02-09T13:48:39.689Z,11.30
2019-02-09T13:51:20.688Z,11.30
2019-02-09T13:54:01.047Z,11.40
2019-02-09T13:56:41.957Z,11.50
2019-02-09T13:59:10.996Z,11.60
2019-02-09T14:01:59.175Z,11.40
2019-02-09T14:04:39.984Z,11.30
2019-02-09T14:07:20.937Z,11.40
2019-02-09T14:10:01.732Z,11.50
2019-02-09T14:12:42.760Z,11.30
2019-02-09T14:15:23.517Z,11.10
2019-02-09T14:18:04.336Z,10.90
2019-02-09T14:20:44.797Z,10.90
2019-02-09T14:23:25.492Z,10.80
2019-02-09T14:26:06.372Z,10.80
2019-02-09T14:28:47.040Z,10.70
2019-02-09T14:31:27.764Z,10.70
2019-02-09T14:34:08.680Z,10.60
2019-02-09T14:36:49.718Z,10.60
2019-02-09T14:39:30.817Z,10.60
2019-02-09T14:42:11.881Z,10.50
2019-02-09T14:44:52.483Z,10.40
2019-02-09T14:47:33.295Z,10.50
2019-02-09T14:50:14.504Z,10.40
2019-02-09T14:52:55.192Z,10.30
2019-02-09T14:55:35.780Z,10.20
2019-02-09T14:58:16.318Z,10.10
2019-02-09T15:00:56.929Z,10.10
2019-02-09T15:03:37.653Z,10.00
2019-02-09T15:06:18.664Z,9.90
2019-02-09T15:08:59.548Z,9.80
2019-02-09T15:11:39.919Z,9.80
2019-02-09T15:14:20.465Z,9.80
2019-02-09T15:17:05.602Z,9.70
2019-02-09T15:19:46.192Z,9.60
2019-02-09T15:22:27.589Z,9.60
2019-02-09T15:25:08.179Z,9.50
2019-02-09T15:27:49.940Z,9.50
2019-02-09T15:30:30.998Z,9.40
2019-02-09T15:33:11.894Z,9.40
2019-02-09T15:35:52.764Z,9.30
2019-02-09T15:38:36.399Z,9.20
2019-02-09T15:41:17.237Z,9.20
2019-02-09T15:43:57.810Z,9.10
2019-02-09T15:46:38.183Z,9.10
2019-02-09T15:49:18.833Z,9.10
2019-02-09T15:51:59.589Z,9.00
2019-02-09T15:54:40.226Z,9.00
2019-02-09T15:57:21.020Z,8.90
2019-02-09T16:00:02.034Z,8.90
2019-02-09T16:02:42.793Z,8.80
2019-02-09T16:05:23.782Z,8.80
2019-02-09T16:08:04.703Z,8.70
2019-02-09T16:10:45.977Z,8.60
2019-02-09T16:13:26.878Z,8.60
2019-02-09T16:16:07.894Z,8.50
2019-02-09T16:18:48.699Z,8.40
2019-02-09T16:21:29.734Z,8.30
2019-02-09T16:24:10.703Z,8.20
2019-02-09T16:26:51.538Z,8.10
2019-02-09T16:29:31.990Z,8.00
2019-02-09T16:32:12.749Z,7.90
2019-02-09T16:34:53.262Z,7.90
2019-02-09T16:37:34.037Z,7.80
2019-02-09T16:40:14.723Z,7.70
2019-02-09T16:42:56.640Z,7.70
2019-02-09T16:45:37.049Z,7.60
2019-02-09T16:48:17.991Z,7.60
2019-02-09T16:50:58.654Z,7.50
2019-02-09T16:53:39.588Z,7.50
2019-02-09T16:56:20.482Z,7.40
2019-02-09T16:59:01.662Z,7.30
2019-02-09T17:01:42.557Z,7.30
2019-02-09T17:04:23.526Z,7.20
2019-02-09T17:07:04.052Z,7.10
2019-02-09T17:09:45.134Z,7.10
2019-02-09T17:12:26.201Z,7.00
2019-02-09T17:15:07.259Z,7.00
2019-02-09T17:17:47.889Z,7.00
2019-02-09T17:20:29.045Z,7.00
2019-02-09T17:23:10.364Z,7.00
2019-02-09T17:25:50.820Z,7.00
2019-02-09T17:28:31.366Z,7.00
2019-02-09T17:31:11.914Z,6.90
2019-02-09T17:33:52.636Z,6.90
2019-02-09T17:36:33.941Z,6.90
2019-02-09T17:39:14.524Z,6.70
2019-02-09T17:41:55.086Z,6.70
2019-02-09T17:44:35.892Z,6.60
2019-02-09T17:47:17.220Z,6.60
2019-02-09T17:49:57.688Z,6.60
2019-02-09T17:52:38.462Z,6.50
2019-02-09T17:55:19.210Z,6.50
2019-02-09T17:57:59.916Z,6.60
2019-02-09T18:03:42.353Z,6.50
2019-02-09T18:06:23.064Z,6.50
2019-02-09T18:09:04.468Z,6.50
2019-02-09T18:11:45.498Z,6.50
2019-02-09T18:14:26.104Z,6.50
2019-02-09T18:17:06.865Z,6.50
2019-02-09T18:19:47.609Z,6.40
2019-02-09T18:22:28.268Z,6.40
2019-02-09T18:25:09.340Z,6.40
2019-02-09T18:27:50.579Z,6.30
2019-02-09T18:30:31.972Z,6.30
2019-02-09T18:33:12.763Z,6.20
2019-02-09T18:35:53.673Z,6.10
2019-02-09T18:38:34.712Z,6.00
2019-02-09T18:41:15.538Z,5.90
2019-02-09T18:43:56.272Z,5.80
2019-02-09T18:46:37.285Z,5.80
2019-02-09T18:49:18.912Z,5.80
2019-02-09T18:51:59.761Z,5.70
2019-02-09T18:54:40.549Z,5.70
2019-02-09T18:57:21.531Z,5.70
2019-02-09T19:00:02.337Z,5.60
2019-02-09T19:02:43.033Z,5.50
2019-02-09T19:05:23.792Z,5.40
2019-02-09T19:08:04.953Z,5.30
2019-02-09T19:10:46.236Z,5.20
2019-02-09T19:13:26.965Z,5.10
2019-02-09T19:16:07.788Z,5.10
2019-02-09T19:18:48.275Z,5.10
2019-02-09T19:21:29.377Z,5.00
2019-02-09T19:24:10.192Z,5.00
2019-02-09T19:26:51.047Z,4.90
2019-02-09T19:29:32.160Z,4.90
2019-02-09T19:32:12.843Z,4.90
2019-02-09T19:34:53.550Z,5.00
2019-02-09T19:37:34.195Z,5.10
2019-02-09T19:40:14.837Z,5.20
2019-02-09T19:42:55.562Z,5.20
2019-02-09T19:45:36.556Z,5.20
2019-02-09T19:48:17.139Z,5.10
2019-02-09T19:50:58.022Z,5.10
2019-02-09T19:53:38.866Z,5.10
2019-02-09T19:56:20.021Z,5.10
2019-02-09T19:59:01.316Z,5.00
2019-02-09T20:04:21.369Z,4.90
2019-02-09T20:07:02.609Z,4.90
2019-02-09T20:09:43.544Z,4.90
2019-02-09T20:12:24.424Z,5.00
2019-02-09T20:15:05.416Z,5.10
2019-02-09T20:17:46.260Z,5.20
2019-02-09T20:20:27.141Z,5.10
2019-02-09T20:23:08.030Z,5.00
2019-02-09T20:25:48.740Z,4.90
2019-02-09T20:28:30.000Z,4.90
2019-02-09T20:31:10.844Z,5.00
2019-02-09T20:33:51.677Z,5.00
2019-02-09T20:36:32.703Z,4.90
2019-02-09T20:39:13.493Z,4.90
2019-02-09T20:41:54.240Z,4.70
2019-02-09T20:44:35.038Z,4.70
2019-02-09T20:47:15.880Z,4.70
2019-02-09T20:49:56.688Z,4.70
2019-02-09T20:52:37.545Z,4.70
2019-02-09T20:55:18.323Z,4.70
2019-02-09T20:57:59.228Z,4.80
2019-02-09T21:00:40.102Z,4.80
2019-02-09T21:03:20.940Z,4.70
2019-02-09T21:06:01.729Z,4.70
2019-02-09T21:08:42.537Z,4.60
2019-02-09T21:11:23.273Z,4.60
2019-02-09T21:14:04.384Z,4.60
2019-02-09T21:16:51.613Z,4.70
2019-02-09T21:19:27.949Z,4.70
2019-02-09T21:22:08.713Z,4.70
2019-02-09T21:24:49.671Z,4.80
2019-02-09T21:27:30.321Z,4.70
2019-02-09T21:30:10.988Z,4.70
2019-02-09T21:32:51.944Z,4.60
2019-02-09T21:35:32.670Z,4.60
2019-02-09T21:38:13.653Z,4.60
2019-02-09T21:40:54.336Z,4.70
2019-02-09T21:43:35.166Z,4.70
2019-02-09T21:46:16.060Z,4.70
2019-02-09T21:48:57.012Z,4.70
2019-02-09T21:51:38.014Z,4.80
2019-02-09T21:54:18.633Z,4.80
2019-02-09T21:56:59.265Z,4.80
2019-02-09T21:59:40.498Z,4.80
2019-02-09T22:02:21.430Z,4.80
2019-02-09T22:05:02.388Z,4.80
2019-02-09T22:07:43.267Z,4.80
2019-02-09T22:10:29.397Z,4.90
2019-02-09T22:13:06.830Z,5.10
2019-02-09T22:15:47.652Z,5.10
2019-02-09T22:18:28.926Z,5.00
2019-02-09T22:21:09.476Z,4.90
2019-02-09T22:23:50.602Z,4.70
2019-02-09T22:26:31.471Z,4.80
2019-02-09T22:29:12.255Z,4.80
2019-02-09T22:31:53.318Z,4.80
2019-02-09T22:34:34.245Z,4.80
2019-02-09T22:37:14.928Z,4.80
2019-02-09T22:39:55.864Z,4.80
2019-02-09T22:42:36.634Z,4.80
2019-02-09T22:45:17.395Z,4.80
2019-02-09T22:47:58.369Z,4.70
2019-02-09T22:50:39.143Z,4.70
2019-02-09T22:53:19.928Z,4.60
2019-02-09T22:56:00.740Z,4.60
2019-02-09T22:58:41.776Z,4.50
2019-02-09T23:01:22.348Z,4.40
2019-02-09T23:04:03.316Z,4.40
2019-02-09T23:06:44.141Z,4.20
2019-02-09T23:09:24.992Z,4.10
2019-02-09T23:12:06.028Z,4.00
2019-02-09T23:14:46.832Z,4.00
2019-02-09T23:17:27.711Z,3.90
2019-02-09T23:20:08.695Z,3.90
2019-02-09T23:22:49.549Z,3.90
2019-02-09T23:25:30.852Z,3.90
2019-02-09T23:28:11.657Z,3.80
2019-02-09T23:30:52.564Z,3.80
2019-02-09T23:33:33.516Z,3.80
2019-02-09T23:36:16.326Z,3.80
2019-02-09T23:38:57.084Z,3.70
2019-02-09T23:41:37.966Z,3.70
2019-02-09T23:44:18.683Z,3.70
2019-02-09T23:46:59.776Z,3.70
2019-02-09T23:49:40.138Z,3.60
2019-02-09T23:52:21.074Z,3.60
2019-02-09T23:55:01.880Z,3.60
2019-02-09T23:57:42.528Z,3.70
